createdAt,value
2019-04-27T00:00:09.628Z,99.90
2019-04-27T00:02:39.682Z,99.90
2019-04-27T00:05:14.321Z,99.90
2019-04-27T00:07:51.379Z,99.90
2019-04-27T00:10:31.312Z,99.90
2019-04-27T00:13:02.119Z,99.90
2019-04-27T00:15:34.352Z,99.90
2019-04-27T00:18:18.280Z,99.90
2019-04-27T00:20:57.304Z,99.90
2019-04-27T00:23:27.364Z,99.90
2019-04-27T00:25:55.776Z,99.90
2019-04-27T00:28:24.271Z,99.90
2019-04-27T00:30:53.130Z,99.90
2019-04-27T00:33:23.430Z,99.90
2019-04-27T00:35:53.877Z,99.90
2019-04-27T00:38:26.992Z,99.90
2019-04-27T00:41:06.313Z,99.90
2019-04-27T00:43:34.804Z,99.90
2019-04-27T00:46:04.094Z,99.90
2019-04-27T00:48:33.320Z,99.90
2019-04-27T00:51:01.884Z,99.90
2019-04-27T00:53:30.316Z,99.90
2019-04-27T00:56:16.439Z,99.90
2019-04-27T00:59:03.507Z,99.90
2019-04-27T01:01:33.799Z,99.90
2019-04-27T01:04:06.644Z,99.90
2019-04-27T01:06:35.038Z,99.90
2019-04-27T01:09:04.539Z,99.90
2019-04-27T01:11:33.400Z,99.90
2019-04-27T01:14:03.749Z,99.90
2019-04-27T01:16:32.112Z,99.90
2019-04-27T01:19:00.612Z,99.90
2019-04-27T01:21:29.567Z,99.80
2019-04-27T01:23:58.876Z,99.80
2019-04-27T01:26:34.869Z,99.90
2019-04-27T01:29:07.640Z,99.90
2019-04-27T01:31:36.120Z,99.90
2019-04-27T01:34:04.704Z,99.90
2019-04-27T01:36:33.114Z,99.90
2019-04-27T01:39:01.552Z,99.90
2019-04-27T01:41:29.953Z,99.90
2019-04-27T01:43:59.096Z,99.90
2019-04-27T01:46:29.417Z,99.90
2019-04-27T01:48:59.098Z,99.90
2019-04-27T01:51:29.478Z,99.90
2019-04-27T01:53:59.380Z,99.90
2019-04-27T01:56:29.354Z,99.90
2019-04-27T01:58:59.526Z,99.90
2019-04-27T02:01:32.479Z,99.90
2019-04-27T02:04:19.335Z,99.90
2019-04-27T02:06:49.610Z,99.90
2019-04-27T02:09:19.348Z,99.90
2019-04-27T02:11:48.953Z,99.90
2019-04-27T02:14:17.565Z,99.90
2019-04-27T02:16:45.989Z,99.90
2019-04-27T02:19:14.472Z,99.90
2019-04-27T02:21:42.887Z,99.90
2019-04-27T02:24:11.351Z,99.90
2019-04-27T02:26:39.974Z,99.90
2019-04-27T02:29:15.892Z,99.90
2019-04-27T02:31:51.726Z,99.90
2019-04-27T02:34:39.781Z,99.90
2019-04-27T02:37:10.207Z,99.90
2019-04-27T02:39:39.830Z,99.90
2019-04-27T02:42:10.109Z,99.90
2019-04-27T02:44:40.684Z,99.90
2019-04-27T02:47:10.493Z,99.90
2019-04-27T02:49:40.616Z,99.90
2019-04-27T02:52:16.940Z,99.90
2019-04-27T02:54:45.362Z,99.90
2019-04-27T02:57:13.798Z,99.90
2019-04-27T02:59:42.219Z,99.90
2019-04-27T03:02:12.285Z,99.90
2019-04-27T03:04:40.684Z,99.90
2019-04-27T03:07:11.316Z,99.90
2019-04-27T03:09:39.692Z,99.90
2019-04-27T03:12:10.253Z,99.90
2019-04-27T03:14:56.720Z,99.90
2019-04-27T03:17:32.538Z,99.90
2019-04-27T03:20:05.513Z,99.90
2019-04-27T03:22:39.801Z,99.90
2019-04-27T03:25:14.772Z,99.90
2019-04-27T03:27:51.356Z,99.90
2019-04-27T03:30:23.003Z,99.90
2019-04-27T03:32:56.005Z,99.90
2019-04-27T03:35:22.819Z,99.90
2019-04-27T03:37:51.040Z,99.90
2019-04-27T03:40:20.377Z,99.90
2019-04-27T03:42:51.064Z,99.90
2019-04-27T03:45:20.175Z,99.90
2019-04-27T03:47:50.430Z,99.90
2019-04-27T03:50:20.554Z,99.90
2019-04-27T03:52:53.672Z,99.90
2019-04-27T03:55:23.876Z,99.90
2019-04-27T03:58:12.116Z,99.90
2019-04-27T04:00:41.204Z,99.90
2019-04-27T04:03:10.650Z,99.90
2019-04-27T04:05:39.799Z,99.90
2019-04-27T04:08:10.752Z,99.90
2019-04-27T04:10:41.656Z,99.90
2019-04-27T04:13:12.023Z,99.90
2019-04-27T04:15:53.965Z,99.90
2019-04-27T04:18:23.057Z,99.90
2019-04-27T04:20:51.458Z,99.90
2019-04-27T04:23:20.431Z,99.90
2019-04-27T04:25:49.983Z,99.90
2019-04-27T04:28:19.923Z,99.90
2019-04-27T04:30:50.145Z,99.90
2019-04-27T04:33:20.594Z,99.90
2019-04-27T04:35:49.868Z,99.90
2019-04-27T04:38:20.618Z,99.90
2019-04-27T04:40:56.225Z,99.90
2019-04-27T04:43:29.293Z,99.90
2019-04-27T04:46:01.557Z,99.90
2019-04-27T04:48:30.340Z,99.90
2019-04-27T04:50:59.987Z,99.90
2019-04-27T04:53:29.404Z,99.90
2019-04-27T04:56:00.109Z,99.90
2019-04-27T04:58:29.396Z,99.50
2019-04-27T05:00:59.706Z,98.70
2019-04-27T05:03:28.674Z,98.40
2019-04-27T05:05:58.792Z,98.50
2019-04-27T05:08:29.111Z,99.00
2019-04-27T05:10:59.514Z,99.00
2019-04-27T05:13:29.192Z,99.20
2019-04-27T05:15:58.883Z,99.50
2019-04-27T05:18:29.127Z,99.60
2019-04-27T05:21:02.182Z,99.50
2019-04-27T05:23:30.604Z,99.50
2019-04-27T05:25:59.356Z,99.70
2019-04-27T05:28:29.649Z,99.90
2019-04-27T05:30:58.677Z,99.90
2019-04-27T05:33:28.598Z,99.90
2019-04-27T05:35:58.948Z,99.90
2019-04-27T05:38:27.264Z,99.90
2019-04-27T05:40:55.662Z,99.90
2019-04-27T05:43:38.917Z,99.90
2019-04-27T05:46:29.753Z,99.90
2019-04-27T05:48:59.929Z,99.90
2019-04-27T05:51:36.644Z,99.90
2019-04-27T05:53:59.494Z,99.90
2019-04-27T05:56:28.908Z,99.90
2019-04-27T05:58:57.403Z,99.90
2019-04-27T06:01:25.832Z,99.90
2019-04-27T06:03:54.255Z,99.90
2019-04-27T06:06:22.669Z,99.90
2019-04-27T06:08:51.099Z,99.90
2019-04-27T06:11:19.709Z,99.90
2019-04-27T06:13:49.224Z,99.90
2019-04-27T06:16:19.349Z,99.90
2019-04-27T06:18:49.333Z,99.90
2019-04-27T06:21:19.579Z,99.90
2019-04-27T06:23:48.768Z,99.90
2019-04-27T06:26:17.432Z,99.90
2019-04-27T06:28:45.878Z,99.90
2019-04-27T06:31:14.288Z,99.90
2019-04-27T06:33:42.690Z,99.90
2019-04-27T06:36:11.148Z,99.90
2019-04-27T06:38:39.632Z,99.90
2019-04-27T06:41:10.020Z,99.90
2019-04-27T06:43:38.216Z,99.90
2019-04-27T06:46:06.670Z,99.90
2019-04-27T06:48:35.098Z,99.90
2019-04-27T06:51:05.697Z,99.90
2019-04-27T06:53:33.751Z,99.90
2019-04-27T06:56:02.170Z,99.90
2019-04-27T06:58:30.620Z,99.90
2019-04-27T07:00:59.524Z,99.90
2019-04-27T07:03:28.948Z,99.90
2019-04-27T07:05:58.838Z,99.90
2019-04-27T07:08:28.707Z,99.90
2019-04-27T07:10:58.851Z,99.90
2019-04-27T07:13:29.121Z,99.90
2019-04-27T07:15:59.555Z,99.90
2019-04-27T07:18:28.615Z,99.90
2019-04-27T07:20:58.654Z,99.90
2019-04-27T07:23:29.118Z,99.90
2019-04-27T07:25:57.482Z,99.90
2019-04-27T07:28:25.890Z,99.90
2019-04-27T07:30:54.315Z,99.90
2019-04-27T07:33:22.729Z,99.90
2019-04-27T07:35:51.135Z,99.90
2019-04-27T07:38:19.546Z,99.90
2019-04-27T07:40:48.880Z,99.90
2019-04-27T07:43:25.027Z,99.90
2019-04-27T07:45:53.444Z,99.90
2019-04-27T07:48:21.866Z,99.90
2019-04-27T07:50:50.264Z,99.90
2019-04-27T07:53:19.357Z,99.90
2019-04-27T07:55:49.420Z,99.90
2019-04-27T07:58:20.577Z,99.90
2019-04-27T08:00:49.204Z,99.90
2019-04-27T08:03:19.580Z,99.90
2019-04-27T08:05:49.138Z,99.90
2019-04-27T08:08:18.968Z,99.90
2019-04-27T08:10:50.050Z,99.90
2019-04-27T08:13:19.385Z,99.90
2019-04-27T08:15:49.585Z,99.90
2019-04-27T08:18:18.954Z,99.90
2019-04-27T08:20:49.071Z,99.90
2019-04-27T08:23:19.421Z,99.80
2019-04-27T08:25:48.984Z,99.40
2019-04-27T08:28:19.209Z,97.70
2019-04-27T08:30:49.261Z,97.80
2019-04-27T08:33:19.046Z,98.10
2019-04-27T08:35:49.087Z,98.10
2019-04-27T08:38:20.381Z,97.90
2019-04-27T08:40:49.357Z,97.40
2019-04-27T08:43:19.152Z,97.20
2019-04-27T08:45:48.781Z,97.80
2019-04-27T08:48:31.447Z,97.30
2019-04-27T08:50:48.668Z,96.50
2019-04-27T08:53:18.641Z,96.60
2019-04-27T08:55:47.187Z,95.90
2019-04-27T08:58:15.616Z,95.90
2019-04-27T09:00:44.034Z,95.90
2019-04-27T09:03:12.448Z,95.30
2019-04-27T09:05:40.879Z,95.60
2019-04-27T09:08:19.438Z,95.30
2019-04-27T09:10:52.232Z,94.20
2019-04-27T09:13:22.359Z,93.80
2019-04-27T09:15:55.305Z,93.00
2019-04-27T09:18:29.299Z,92.90
2019-04-27T09:21:00.133Z,94.30
2019-04-27T09:23:28.700Z,93.70
2019-04-27T09:25:57.219Z,94.20
2019-04-27T09:28:25.634Z,96.00
2019-04-27T09:30:54.055Z,97.10
2019-04-27T09:33:22.495Z,98.30
2019-04-27T09:35:50.913Z,98.30
2019-04-27T09:38:19.339Z,98.80
2019-04-27T09:40:47.743Z,99.90
2019-04-27T09:43:16.209Z,99.90
2019-04-27T09:45:44.681Z,99.90
2019-04-27T09:48:13.087Z,99.90
2019-04-27T09:50:41.592Z,99.90
2019-04-27T09:53:10.085Z,99.90
2019-04-27T09:55:38.509Z,99.90
2019-04-27T09:58:06.910Z,99.90
2019-04-27T10:00:36.450Z,99.90
2019-04-27T10:03:06.639Z,99.90
2019-04-27T10:05:36.715Z,99.90
2019-04-27T10:08:06.223Z,99.90
2019-04-27T10:10:34.873Z,99.90
2019-04-27T10:13:03.297Z,99.90
2019-04-27T10:15:31.743Z,99.90
2019-04-27T10:18:00.160Z,99.90
2019-04-27T10:20:28.578Z,99.90
2019-04-27T10:22:56.981Z,99.90
2019-04-27T10:25:27.028Z,99.90
2019-04-27T10:27:58.580Z,99.90
2019-04-27T10:30:27.799Z,99.90
2019-04-27T10:32:56.280Z,99.90
2019-04-27T10:35:26.046Z,99.90
2019-04-27T10:37:54.657Z,99.90
2019-04-27T10:40:23.174Z,99.90
2019-04-27T10:42:51.596Z,99.90
2019-04-27T10:45:20.024Z,99.90
2019-04-27T10:47:49.577Z,99.90
2019-04-27T10:50:18.558Z,99.90
2019-04-27T10:52:53.219Z,99.90
2019-04-27T10:55:17.112Z,99.90
2019-04-27T10:57:45.499Z,99.90
2019-04-27T11:00:16.695Z,99.90
2019-04-27T11:02:45.220Z,99.90
2019-04-27T11:05:18.642Z,99.90
2019-04-27T11:07:47.039Z,99.90
2019-04-27T11:10:16.397Z,99.90
2019-04-27T11:12:45.818Z,99.90
2019-04-27T11:15:16.390Z,99.90
2019-04-27T11:17:47.259Z,99.90
2019-04-27T11:20:15.952Z,99.90
2019-04-27T11:22:46.376Z,99.90
2019-04-27T11:25:15.991Z,99.90
2019-04-27T11:27:44.689Z,99.90
2019-04-27T11:30:15.707Z,99.90
2019-04-27T11:32:44.306Z,99.90
2019-04-27T11:35:20.429Z,99.90
2019-04-27T11:37:50.706Z,99.90
2019-04-27T11:40:21.280Z,99.90
2019-04-27T11:42:49.683Z,99.90
2019-04-27T11:45:20.391Z,99.90
2019-04-27T11:47:48.819Z,99.90
2019-04-27T11:50:17.663Z,99.90
2019-04-27T11:52:46.094Z,99.90
2019-04-27T11:55:16.120Z,99.90
2019-04-27T11:57:44.653Z,99.90
2019-04-27T12:00:18.165Z,99.90
2019-04-27T12:02:46.593Z,99.90
2019-04-27T12:05:16.092Z,99.90
2019-04-27T12:07:47.494Z,99.90
2019-04-27T12:10:15.910Z,99.90
2019-04-27T12:12:46.161Z,99.90
2019-04-27T12:15:16.091Z,99.90
2019-04-27T12:17:46.137Z,99.90
2019-04-27T12:20:15.927Z,99.90
2019-04-27T12:22:45.293Z,99.90
2019-04-27T12:25:14.460Z,99.90
2019-04-27T12:27:56.363Z,99.90
2019-04-27T12:30:29.557Z,99.90
2019-04-27T12:32:57.963Z,99.90
2019-04-27T12:35:26.370Z,99.90
2019-04-27T12:37:56.011Z,99.90
2019-04-27T12:40:24.593Z,99.90
2019-04-27T12:42:53.024Z,99.90
2019-04-27T12:45:21.560Z,99.90
2019-04-27T12:47:49.979Z,99.90
2019-04-27T12:50:18.724Z,99.90
2019-04-27T12:52:48.781Z,99.90
2019-04-27T12:55:25.748Z,99.90
2019-04-27T12:57:56.014Z,99.90
2019-04-27T13:00:26.706Z,99.90
2019-04-27T13:02:55.583Z,99.90
2019-04-27T13:05:25.845Z,99.90
2019-04-27T13:07:54.413Z,99.90
2019-04-27T13:10:22.877Z,99.90
2019-04-27T13:12:51.303Z,99.90
2019-04-27T13:15:20.551Z,99.90
2019-04-27T13:17:48.967Z,99.90
2019-04-27T13:20:17.508Z,99.90
2019-04-27T13:22:46.023Z,99.90
2019-04-27T13:25:14.873Z,99.90
2019-04-27T13:27:43.283Z,99.90
2019-04-27T13:30:11.935Z,99.90
2019-04-27T13:32:40.401Z,99.90
2019-04-27T13:35:09.851Z,99.90
2019-04-27T13:37:42.639Z,99.90
2019-04-27T13:40:13.656Z,99.90
2019-04-27T13:42:49.660Z,99.90
2019-04-27T13:45:26.641Z,99.90
2019-04-27T13:48:13.486Z,99.90
2019-04-27T13:50:46.480Z,99.90
2019-04-27T13:53:16.780Z,99.90
2019-04-27T13:55:46.443Z,99.90
2019-04-27T13:58:15.216Z,99.90
2019-04-27T14:00:43.690Z,99.90
2019-04-27T14:03:12.156Z,99.90
2019-04-27T14:05:40.555Z,99.90
2019-04-27T14:08:09.235Z,99.90
2019-04-27T14:10:38.650Z,99.90
2019-04-27T14:13:08.809Z,99.90
2019-04-27T14:15:38.981Z,99.90
2019-04-27T14:18:08.389Z,99.90
2019-04-27T14:20:38.815Z,99.90
2019-04-27T14:23:12.004Z,99.90
2019-04-27T14:25:40.421Z,99.90
2019-04-27T14:28:08.831Z,99.90
2019-04-27T14:30:38.102Z,98.00
2019-04-27T14:33:08.479Z,98.20
2019-04-27T14:35:37.091Z,97.70
2019-04-27T14:38:05.496Z,99.90
2019-04-27T14:40:33.928Z,99.90
2019-04-27T14:43:02.336Z,99.90
2019-04-27T14:45:30.768Z,99.90
2019-04-27T14:47:59.170Z,99.90
2019-04-27T14:50:27.593Z,99.90
2019-04-27T14:52:56.007Z,96.00
2019-04-27T14:55:24.430Z,95.60
2019-04-27T14:57:52.836Z,98.30
2019-04-27T15:00:22.321Z,96.30
2019-04-27T15:02:50.714Z,96.80
2019-04-27T15:05:19.148Z,98.10
2019-04-27T15:07:47.545Z,96.60
2019-04-27T15:10:16.522Z,94.10
2019-04-27T15:12:44.923Z,95.90
2019-04-27T15:15:13.691Z,95.10
2019-04-27T15:17:42.115Z,98.20
2019-04-27T15:20:29.127Z,96.20
2019-04-27T15:23:00.019Z,96.40
2019-04-27T15:25:28.621Z,97.10
2019-04-27T15:28:01.519Z,94.40
2019-04-27T15:30:42.516Z,98.70
2019-04-27T15:33:29.050Z,96.60
2019-04-27T15:35:59.219Z,95.30
2019-04-27T15:38:29.333Z,92.90
2019-04-27T15:41:08.885Z,94.20
2019-04-27T15:43:39.124Z,96.80
2019-04-27T15:46:08.291Z,99.90
2019-04-27T15:48:38.502Z,99.90
2019-04-27T15:51:14.709Z,99.90
2019-04-27T15:53:41.136Z,99.90
2019-04-27T15:56:08.907Z,99.90
2019-04-27T15:58:38.286Z,99.90
2019-04-27T16:01:11.613Z,99.90
2019-04-27T16:03:38.980Z,99.90
2019-04-27T16:06:11.668Z,99.90
2019-04-27T16:08:44.767Z,99.90
2019-04-27T16:11:11.693Z,99.90
2019-04-27T16:13:38.364Z,99.90
2019-04-27T16:16:08.447Z,99.90
2019-04-27T16:18:38.697Z,99.90
2019-04-27T16:21:10.521Z,99.90
2019-04-27T16:23:42.813Z,99.90
2019-04-27T16:26:11.299Z,99.90
2019-04-27T16:28:42.965Z,99.90
2019-04-27T16:31:09.600Z,99.90
2019-04-27T16:33:39.112Z,99.90
2019-04-27T16:36:09.614Z,99.90
2019-04-27T16:38:39.553Z,99.90
2019-04-27T16:41:08.230Z,99.90
2019-04-27T16:43:38.445Z,99.90
2019-04-27T16:46:08.756Z,99.90
2019-04-27T16:48:38.875Z,99.90
2019-04-27T16:51:08.761Z,99.90
2019-04-27T16:53:40.987Z,99.90
2019-04-27T16:56:14.195Z,99.90
2019-04-27T16:58:39.486Z,99.90
2019-04-27T17:01:12.877Z,99.90
2019-04-27T17:03:41.558Z,99.90
2019-04-27T17:06:10.013Z,99.90
2019-04-27T17:08:39.387Z,99.90
2019-04-27T17:11:13.019Z,99.90
2019-04-27T17:13:44.035Z,99.90
2019-04-27T17:16:14.324Z,99.90
2019-04-27T17:18:44.391Z,99.90
2019-04-27T17:21:18.927Z,99.90
2019-04-27T17:23:42.943Z,99.90
2019-04-27T17:26:21.210Z,99.90
2019-04-27T17:28:43.981Z,99.90
2019-04-27T17:31:19.727Z,99.90
2019-04-27T17:33:52.218Z,99.90
2019-04-27T17:36:20.716Z,99.90
2019-04-27T17:38:50.956Z,99.90
2019-04-27T17:41:19.292Z,99.90
2019-04-27T17:43:48.135Z,99.90
2019-04-27T17:46:16.687Z,99.90
2019-04-27T17:48:45.124Z,99.90
2019-04-27T17:51:13.864Z,99.90
2019-04-27T17:53:42.291Z,99.90
2019-04-27T17:56:10.774Z,99.90
2019-04-27T17:58:39.653Z,99.90
2019-04-27T18:01:14.146Z,99.90
2019-04-27T18:03:40.893Z,99.90
2019-04-27T18:06:09.291Z,99.90
2019-04-27T18:08:40.266Z,99.90
2019-04-27T18:11:08.781Z,99.90
2019-04-27T18:13:38.799Z,99.90
2019-04-27T18:16:09.106Z,99.90
2019-04-27T18:18:41.625Z,99.90
2019-04-27T18:21:10.908Z,99.90
2019-04-27T18:23:41.036Z,99.90
2019-04-27T18:26:12.660Z,99.90
2019-04-27T18:28:45.754Z,99.90
2019-04-27T18:31:15.944Z,99.90
2019-04-27T18:33:44.964Z,99.90
2019-04-27T18:36:14.477Z,99.90
2019-04-27T18:38:43.090Z,99.90
2019-04-27T18:41:12.004Z,99.90
2019-04-27T18:43:46.314Z,99.90
2019-04-27T18:46:14.697Z,99.90
2019-04-27T18:48:52.498Z,99.90
2019-04-27T18:51:20.663Z,99.90
2019-04-27T18:53:53.903Z,99.90
2019-04-27T18:56:20.277Z,99.90
2019-04-27T18:58:48.678Z,99.90
2019-04-27T19:01:18.696Z,99.90
2019-04-27T19:03:47.548Z,99.90
2019-04-27T19:06:18.822Z,99.90
2019-04-27T19:08:48.760Z,99.90
2019-04-27T19:11:18.753Z,99.90
2019-04-27T19:13:48.854Z,99.90
2019-04-27T19:16:18.735Z,99.90
2019-04-27T19:18:48.105Z,99.90
2019-04-27T19:21:19.801Z,99.90
2019-04-27T19:23:46.762Z,99.90
2019-04-27T19:26:25.835Z,99.90
2019-04-27T19:28:58.568Z,99.90
2019-04-27T19:31:29.089Z,99.90
2019-04-27T19:33:57.611Z,99.90
2019-04-27T19:36:27.883Z,99.90
2019-04-27T19:38:56.192Z,99.90
2019-04-27T19:41:24.625Z,99.90
2019-04-27T19:43:53.020Z,99.90
2019-04-27T19:46:21.466Z,99.90
2019-04-27T19:48:50.076Z,99.90
2019-04-27T19:51:20.065Z,99.90
2019-04-27T19:53:48.518Z,99.90
2019-04-27T19:56:16.954Z,99.90
2019-04-27T19:58:47.000Z,99.90
2019-04-27T20:01:17.090Z,99.90
2019-04-27T20:04:02.307Z,99.90
2019-04-27T20:06:30.940Z,99.90
2019-04-27T20:09:01.066Z,99.90
2019-04-27T20:11:29.561Z,99.90
2019-04-27T20:13:58.035Z,99.90
2019-04-27T20:16:26.466Z,99.90
2019-04-27T20:18:54.871Z,99.90
2019-04-27T20:21:23.295Z,99.90
2019-04-27T20:23:51.703Z,99.90
2019-04-27T20:26:20.162Z,99.90
2019-04-27T20:28:48.571Z,99.90
2019-04-27T20:31:17.016Z,99.90
2019-04-27T20:33:45.412Z,99.90
2019-04-27T20:36:13.876Z,99.90
2019-04-27T20:38:42.274Z,99.90
2019-04-27T20:41:11.562Z,99.90
2019-04-27T20:43:41.932Z,99.90
2019-04-27T20:46:11.834Z,99.90
2019-04-27T20:48:41.355Z,99.90
2019-04-27T20:51:11.345Z,99.90
2019-04-27T20:53:41.950Z,99.90
2019-04-27T20:56:10.445Z,99.90
2019-04-27T20:58:38.856Z,99.90
2019-04-27T21:01:07.352Z,99.90
2019-04-27T21:03:41.119Z,99.90
2019-04-27T21:06:11.369Z,99.90
2019-04-27T21:08:41.420Z,99.90
2019-04-27T21:11:11.734Z,99.90
2019-04-27T21:13:39.964Z,99.90
2019-04-27T21:16:08.401Z,99.90
2019-04-27T21:18:36.842Z,99.90
2019-04-27T21:21:05.300Z,99.90
2019-04-27T21:23:33.733Z,99.90
2019-04-27T21:26:02.335Z,99.90
2019-04-27T21:28:30.987Z,99.90
2019-04-27T21:30:59.485Z,99.90
2019-04-27T21:33:27.917Z,99.90
2019-04-27T21:35:56.371Z,99.90
2019-04-27T21:38:24.836Z,99.90
2019-04-27T21:40:53.252Z,99.90
2019-04-27T21:43:21.785Z,99.90
2019-04-27T21:45:51.089Z,99.90
2019-04-27T21:48:21.240Z,99.90
2019-04-27T21:50:51.707Z,99.90
2019-04-27T21:53:24.753Z,99.90
2019-04-27T21:56:01.310Z,99.90
2019-04-27T21:58:31.317Z,99.90
2019-04-27T22:01:18.303Z,99.90
2019-04-27T22:03:46.726Z,99.90
2019-04-27T22:06:15.153Z,99.90
2019-04-27T22:08:43.684Z,99.90
2019-04-27T22:11:12.189Z,99.90
2019-04-27T22:13:41.062Z,99.90
2019-04-27T22:16:12.706Z,99.90
2019-04-27T22:18:41.540Z,99.90
2019-04-27T22:21:11.488Z,99.90
2019-04-27T22:23:44.632Z,99.90
2019-04-27T22:26:13.072Z,99.90
2019-04-27T22:28:48.759Z,99.90
2019-04-27T22:31:13.446Z,99.90
2019-04-27T22:33:42.931Z,99.90
2019-04-27T22:36:11.604Z,99.90
2019-04-27T22:38:41.242Z,99.90
2019-04-27T22:41:27.608Z,99.90
2019-04-27T22:44:06.565Z,99.90
2019-04-27T22:46:40.845Z,99.90
2019-04-27T22:49:10.984Z,99.90
2019-04-27T22:51:41.197Z,99.90
2019-04-27T22:54:11.492Z,99.90
2019-04-27T22:56:42.200Z,99.90
2019-04-27T22:59:21.491Z,99.90
2019-04-27T23:01:54.617Z,99.90
2019-04-27T23:04:27.645Z,99.90
2019-04-27T23:06:56.064Z,99.90
2019-04-27T23:09:24.480Z,99.90
2019-04-27T23:11:52.976Z,99.90
2019-04-27T23:14:21.412Z,99.90
2019-04-27T23:17:11.543Z,99.90
2019-04-27T23:19:40.842Z,99.90
2019-04-27T23:22:11.087Z,99.90
2019-04-27T23:24:41.374Z,99.90
2019-04-27T23:27:11.092Z,99.90
2019-04-27T23:29:41.656Z,99.90
2019-04-27T23:32:21.065Z,99.90
2019-04-27T23:34:51.433Z,99.90
2019-04-27T23:37:19.993Z,99.90
2019-04-27T23:39:48.407Z,99.90
2019-04-27T23:42:16.811Z,99.90
2019-04-27T23:44:45.243Z,99.90
2019-04-27T23:47:13.655Z,99.90
2019-04-27T23:49:42.103Z,99.90
2019-04-27T23:52:24.131Z,99.90
2019-04-27T23:54:52.555Z,99.90
2019-04-27T23:57:21.774Z,99.90
2019-04-27T23:59:51.528Z,99.90
